Nashville, Tennessee
Traffic Map
Current Weather Conditions
Nashville, Tennessee
Overcast
Overcast
14°
Feels Like: 14°
Wind Chill: 14° Ceiling: 25000
Heat Index: 14° Visibility: 10mi
Dew Point: 11° Wind: 7mph
Humidity: 83% Direction: 190° (S)
Pressure: 29.76in Gusts: 0mph
Raw Report DataKBNA 210653Z 19006KT 10SM OVC250 14/11 A2976 RMK AO2 SLP073 T01390111
Traffic Incident Summary
Active as of:
Severity:
Category:
InformationThere was an issue retrieving the traffic information for this location. Please try a different location or try again shortly.
Advertisements
Track Severe Weather on mobile